Barclay, Minnesota
Current Conditions -  °F | °C
As of 3:54 AM on Thursday 23 Oct 2014 (Local Time) from KPWC Reporting Station
Haze Haze  
Wind Chill: 50°   Ceiling: 300
Heat Index: 50°   Visibility: 3mi
Dew Point: 50°   Wind: 3mph
Humidity: 100%   Direction: 150°SSE
Pressure: 29.96"   Gusts: NA
Location:  46.6535°N, 94.5389°W
Report Text: KPWC 230854Z AUTO 15003KT 3SM BR OVC003 10/10 A2996 RMK AO2
Loading
Personal Weather Stations






























Interactive Weather Map
Tropical Storm Tracking
New forecast layout! Learn more

10-Day Weather Forecast

Advertisements
Track Severe Weather on mobile